Time;durP1;ratioP1;P1;durP2;ratioP2;P2;SDS_P1;SDS_P2;PMS_P1;PMS_P2;Temp;Humidity;BMP_temperature;BMP_pressure;BME280_temperature;BME280_humidity;BME280_pressure;Samples;Min_cycle;Max_cycle;Signal;HPM_P1;HPM_P2
2021/04/16 00:01:28;;;;;;;1.17;1.08;;;;;;;;;;5089098;28;20051;-75
2021/04/16 00:03:54;;;;;;;2.42;1.75;;;;;;;;;;5089991;28;20028;-75
2021/04/16 00:06:20;;;;;;;0.95;0.82;;;;;;;;;;5089960;28;20028;-75
2021/04/16 00:08:46;;;;;;;1.77;1.00;;;;;;;;;;5089603;28;20024;-75
2021/04/16 00:11:19;;;;;;;2.28;1.20;;;;;;;;;;5089702;28;20036;-75
2021/04/16 00:13:46;;;;;;;2.38;1.23;;;;;;;;;;5089895;28;20372;-75
2021/04/16 00:16:14;;;;;;;1.10;0.98;;;;;;;;;;5090088;28;20024;-75
2021/04/16 00:18:40;;;;;;;1.88;1.35;;;;;;;;;;5071695;28;20534;-75
2021/04/16 00:21:06;;;;;;;0.88;0.82;;;;;;;;;;5089814;28;20031;-75
2021/04/16 00:23:32;;;;;;;3.33;1.40;;;;;;;;;;5090621;28;20459;-75
2021/04/16 00:25:59;;;;;;;0.80;0.80;;;;;;;;;;5094045;28;20020;-75
2021/04/16 00:28:26;;;;;;;2.90;1.20;;;;;;;;;;5093190;28;20051;-75
2021/04/16 00:30:54;;;;;;;2.63;1.00;;;;;;;;;;5093547;28;20028;-75
2021/04/16 00:33:20;;;;;;;1.02;0.90;;;;;;;;;;5093356;28;20081;-75
2021/04/16 00:35:46;;;;;;;1.17;1.10;;;;;;;;;;5094045;28;20021;-75
2021/04/16 00:38:13;;;;;;;2.35;1.13;;;;;;;;;;5093523;28;20136;-75
2021/04/16 00:40:41;;;;;;;1.30;1.17;;;;;;;;;;5093303;28;20032;-75
2021/04/16 00:43:08;;;;;;;1.10;1.00;;;;;;;;;;5093615;28;20464;-75
2021/04/16 00:45:35;;;;;;;1.25;0.90;;;;;;;;;;5093442;28;20028;-75
2021/04/16 00:48:03;;;;;;;1.70;1.10;;;;;;;;;;5093550;28;20062;-75
2021/04/16 00:50:36;;;;;;;2.33;1.23;;;;;;;;;;5092844;28;20031;-75
2021/04/16 00:53:02;;;;;;;3.47;1.10;;;;;;;;;;5093239;28;20039;-75
2021/04/16 00:55:29;;;;;;;1.40;1.30;;;;;;;;;;5092897;28;20032;-75
2021/04/16 00:57:55;;;;;;;1.30;0.93;;;;;;;;;;5093460;28;20020;-75
2021/04/16 01:00:23;;;;;;;2.33;0.90;;;;;;;;;;5092846;28;20081;-75
2021/04/16 01:02:49;;;;;;;1.85;1.10;;;;;;;;;;5093181;28;20020;-75
2021/04/16 01:05:15;;;;;;;4.05;1.40;;;;;;;;;;5092678;28;20028;-75
2021/04/16 01:07:41;;;;;;;1.52;1.25;;;;;;;;;;5093281;28;20121;-75
2021/04/16 01:10:08;;;;;;;1.30;1.05;;;;;;;;;;5093288;28;20028;-75
2021/04/16 01:12:34;;;;;;;1.38;1.00;;;;;;;;;;5091933;28;20093;-75
2021/04/16 01:15:04;;;;;;;2.55;1.13;;;;;;;;;;5093306;28;20028;-75
2021/04/16 01:17:31;;;;;;;1.00;1.00;;;;;;;;;;5093106;28;20063;-75
2021/04/16 01:20:04;;;;;;;1.30;1.13;;;;;;;;;;5093080;28;20479;-75
2021/04/16 01:22:30;;;;;;;1.67;0.80;;;;;;;;;;5092442;28;20028;-75
2021/04/16 01:24:58;;;;;;;1.67;1.30;;;;;;;;;;5093133;28;20086;-75
2021/04/16 01:27:24;;;;;;;1.33;1.00;;;;;;;;;;5092131;28;20048;-75
2021/04/16 01:29:51;;;;;;;1.10;0.80;;;;;;;;;;5092908;28;20043;-75
2021/04/16 01:32:28;;;;;;;1.08;1.00;;;;;;;;;;5091824;28;20474;-75
2021/04/16 01:34:54;;;;;;;1.10;1.00;;;;;;;;;;5092504;28;20074;-75
2021/04/16 01:37:21;;;;;;;2.75;1.05;;;;;;;;;;5091811;28;20412;-74
2021/04/16 01:39:47;;;;;;;2.45;1.17;;;;;;;;;;5092388;28;20070;-75
2021/04/16 01:42:14;;;;;;;0.90;0.90;;;;;;;;;;5092148;28;20176;-75
2021/04/16 01:44:43;;;;;;;2.30;1.98;;;;;;;;;;5092588;28;20573;-75
2021/04/16 01:47:11;;;;;;;1.30;1.05;;;;;;;;;;5092798;28;20093;-75
2021/04/16 01:49:41;;;;;;;1.50;1.40;;;;;;;;;;5092080;28;20078;-75
2021/04/16 01:52:09;;;;;;;1.02;0.85;;;;;;;;;;5091877;28;20036;-75
2021/04/16 01:54:37;;;;;;;1.63;1.10;;;;;;;;;;5091783;28;20024;-75
2021/04/16 01:57:05;;;;;;;4.82;1.15;;;;;;;;;;5092557;28;20032;-75
2021/04/16 01:59:34;;;;;;;0.80;0.80;;;;;;;;;;5092034;28;20039;-75
2021/04/16 02:02:01;;;;;;;1.02;0.77;;;;;;;;;;5091768;28;20075;-75
2021/04/16 02:04:27;;;;;;;0.80;0.80;;;;;;;;;;5091551;28;20199;-75
2021/04/16 02:06:53;;;;;;;1.80;1.52;;;;;;;;;;5091995;28;20164;-75
2021/04/16 02:09:21;;;;;;;1.27;1.13;;;;;;;;;;5091429;28;20024;-74
2021/04/16 02:11:48;;;;;;;1.65;1.27;;;;;;;;;;5091556;28;20478;-75
2021/04/16 02:14:18;;;;;;;0.75;0.68;;;;;;;;;;5091633;28;20032;-74
2021/04/16 02:16:45;;;;;;;1.45;0.82;;;;;;;;;;5091826;28;20111;-75
2021/04/16 02:19:12;;;;;;;1.50;0.80;;;;;;;;;;5092218;28;20483;-75
2021/04/16 02:21:38;;;;;;;2.03;1.08;;;;;;;;;;5091093;28;20057;-75
2021/04/16 02:24:05;;;;;;;1.05;0.80;;;;;;;;;;5092105;28;20103;-75
2021/04/16 02:26:31;;;;;;;1.38;0.80;;;;;;;;;;5091683;28;20016;-75
2021/04/16 02:28:57;;;;;;;1.10;0.90;;;;;;;;;;5091600;28;20032;-75
2021/04/16 02:31:23;;;;;;;1.30;1.20;;;;;;;;;;5090704;28;20085;-74
2021/04/16 02:33:49;;;;;;;0.50;0.50;;;;;;;;;;5091697;28;20032;-75
2021/04/16 02:36:16;;;;;;;0.88;0.88;;;;;;;;;;5091430;28;20499;-74
2021/04/16 02:38:42;;;;;;;1.38;1.27;;;;;;;;;;5090779;28;20043;-75
2021/04/16 02:41:08;;;;;;;1.38;0.80;;;;;;;;;;5091484;28;20114;-75
2021/04/16 02:43:34;;;;;;;0.80;0.75;;;;;;;;;;5090868;28;20445;-75
2021/04/16 02:46:01;;;;;;;1.85;0.57;;;;;;;;;;5091364;28;20032;-75
2021/04/16 02:48:27;;;;;;;0.85;0.73;;;;;;;;;;5091109;28;20111;-74
2021/04/16 02:50:53;;;;;;;0.98;0.82;;;;;;;;;;5091549;28;20036;-75
2021/04/16 02:53:20;;;;;;;1.20;0.80;;;;;;;;;;5090892;28;20047;-74
2021/04/16 02:55:46;;;;;;;1.30;1.08;;;;;;;;;;5091354;28;20032;-75
2021/04/16 02:58:12;;;;;;;0.80;0.77;;;;;;;;;;5091047;28;20032;-75
2021/04/16 03:00:38;;;;;;;1.27;0.70;;;;;;;;;;5090683;28;20047;-75
2021/04/16 03:03:05;;;;;;;0.70;0.70;;;;;;;;;;5091276;28;20028;-75
2021/04/16 03:05:31;;;;;;;0.70;0.70;;;;;;;;;;5090159;28;20036;-75
2021/04/16 03:07:57;;;;;;;2.40;0.90;;;;;;;;;;5090712;28;20028;-75
2021/04/16 03:10:25;;;;;;;1.05;0.95;;;;;;;;;;5090273;28;20028;-74
2021/04/16 03:12:51;;;;;;;1.00;1.00;;;;;;;;;;5090634;28;20109;-74
2021/04/16 03:15:17;;;;;;;1.02;0.82;;;;;;;;;;5090715;28;20035;-74
2021/04/16 03:17:44;;;;;;;1.23;1.13;;;;;;;;;;5090613;28;20068;-75
2021/04/16 03:20:11;;;;;;;0.82;0.80;;;;;;;;;;5090752;28;20127;-75
2021/04/16 03:22:37;;;;;;;1.30;1.02;;;;;;;;;;5089973;28;20063;-75
2021/04/16 03:25:04;;;;;;;0.80;0.75;;;;;;;;;;5091144;28;20026;-74
2021/04/16 03:27:30;;;;;;;0.75;0.55;;;;;;;;;;5090067;28;20028;-74
2021/04/16 03:29:56;;;;;;;3.22;0.60;;;;;;;;;;5090587;28;20024;-75
2021/04/16 03:32:22;;;;;;;4.07;1.00;;;;;;;;;;5089322;28;20062;-74
2021/04/16 03:34:48;;;;;;;0.93;0.93;;;;;;;;;;5090445;28;20036;-75
2021/04/16 03:37:14;;;;;;;1.45;1.08;;;;;;;;;;5090361;28;20505;-74
2021/04/16 03:39:40;;;;;;;0.63;0.63;;;;;;;;;;5089996;28;20513;-74
2021/04/16 03:42:06;;;;;;;0.95;0.85;;;;;;;;;;5090056;28;20016;-75
2021/04/16 03:44:33;;;;;;;1.60;0.82;;;;;;;;;;5090376;28;20517;-75
2021/04/16 03:46:59;;;;;;;2.45;0.70;;;;;;;;;;5090888;28;20523;-75
2021/04/16 03:49:25;;;;;;;0.63;0.63;;;;;;;;;;5089553;28;20024;-74
2021/04/16 03:52:01;;;;;;;2.45;1.02;;;;;;;;;;5090005;28;20043;-74
2021/04/16 03:54:28;;;;;;;0.85;0.85;;;;;;;;;;5089600;28;20046;-74
2021/04/16 03:56:54;;;;;;;0.75;0.75;;;;;;;;;;5090292;28;20028;-75
2021/04/16 03:59:22;;;;;;;1.40;1.15;;;;;;;;;;5089163;28;20046;-74
2021/04/16 04:01:49;;;;;;;2.30;1.10;;;;;;;;;;5089775;28;20028;-74
2021/04/16 04:04:15;;;;;;;1.10;1.00;;;;;;;;;;5090076;28;20024;-74
2021/04/16 04:06:42;;;;;;;1.50;0.85;;;;;;;;;;5089890;28;20039;-74
2021/04/16 04:09:08;;;;;;;1.55;1.20;;;;;;;;;;5089841;28;20111;-74
2021/04/16 04:11:34;;;;;;;0.60;0.60;;;;;;;;;;5089040;28;20303;-74
2021/04/16 04:14:01;;;;;;;0.70;0.50;;;;;;;;;;5089811;28;20467;-74
2021/04/16 04:16:28;;;;;;;0.73;0.60;;;;;;;;;;5089489;28;20039;-74
2021/04/16 04:18:55;;;;;;;1.42;0.77;;;;;;;;;;5090163;28;20102;-74
2021/04/16 04:21:21;;;;;;;0.80;0.73;;;;;;;;;;5089173;28;20615;-73
2021/04/16 04:23:47;;;;;;;0.77;0.70;;;;;;;;;;5089857;28;20471;-74
2021/04/16 04:26:13;;;;;;;0.80;0.80;;;;;;;;;;5089764;28;20394;-74
2021/04/16 04:28:39;;;;;;;1.02;0.80;;;;;;;;;;5089892;28;20236;-74
2021/04/16 04:31:07;;;;;;;1.08;0.68;;;;;;;;;;5089463;28;20026;-74
2021/04/16 04:33:33;;;;;;;1.92;0.82;;;;;;;;;;5088814;28;20089;-74
2021/04/16 04:35:59;;;;;;;0.90;0.90;;;;;;;;;;5089932;28;20020;-74
2021/04/16 04:38:26;;;;;;;0.93;0.80;;;;;;;;;;5088288;28;20087;-74
2021/04/16 04:40:53;;;;;;;1.63;0.63;;;;;;;;;;5089512;28;20028;-74
2021/04/16 04:43:19;;;;;;;1.02;0.85;;;;;;;;;;5089018;28;20065;-74
2021/04/16 04:45:45;;;;;;;1.05;0.77;;;;;;;;;;5089761;28;20028;-74
2021/04/16 04:48:11;;;;;;;0.85;0.70;;;;;;;;;;5089621;28;20081;-74
2021/04/16 04:50:37;;;;;;;2.10;1.65;;;;;;;;;;5089095;28;20055;-74
2021/04/16 04:53:03;;;;;;;2.47;0.90;;;;;;;;;;5089134;28;20548;-74
2021/04/16 04:55:31;;;;;;;0.98;0.88;;;;;;;;;;5089269;28;20370;-74
2021/04/16 04:58:00;;;;;;;1.10;0.70;;;;;;;;;;5089813;28;20031;-74
2021/04/16 05:00:26;;;;;;;1.17;1.08;;;;;;;;;;5088746;28;20052;-74
2021/04/16 05:02:52;;;;;;;0.95;0.93;;;;;;;;;;5089385;28;20024;-74
2021/04/16 05:05:21;;;;;;;0.80;0.73;;;;;;;;;;5088981;28;20443;-74
2021/04/16 05:07:47;;;;;;;2.50;1.25;;;;;;;;;;5089101;28;20119;-74
2021/04/16 05:10:13;;;;;;;1.52;0.85;;;;;;;;;;5091541;28;20489;-73
2021/04/16 05:12:40;;;;;;;1.50;1.00;;;;;;;;;;5092362;28;20044;-74
2021/04/16 05:15:06;;;;;;;1.35;0.93;;;;;;;;;;5093319;28;20116;-74
2021/04/16 05:17:32;;;;;;;1.13;0.95;;;;;;;;;;5092522;28;20077;-74
2021/04/16 05:19:59;;;;;;;2.53;1.35;;;;;;;;;;5093177;28;20024;-74
2021/04/16 05:22:25;;;;;;;1.33;0.85;;;;;;;;;;5092316;28;20386;-74
2021/04/16 05:24:51;;;;;;;0.80;0.80;;;;;;;;;;5093148;28;20024;-74
2021/04/16 05:27:18;;;;;;;0.80;0.70;;;;;;;;;;5092693;28;20042;-73
2021/04/16 05:29:45;;;;;;;2.00;0.90;;;;;;;;;;5092540;28;20032;-74
2021/04/16 05:32:11;;;;;;;1.20;1.10;;;;;;;;;;5092201;28;20040;-74
2021/04/16 05:34:37;;;;;;;1.27;1.17;;;;;;;;;;5091954;28;20032;-74
2021/04/16 05:37:04;;;;;;;0.90;0.70;;;;;;;;;;5092759;28;20028;-74
2021/04/16 05:39:30;;;;;;;0.98;0.65;;;;;;;;;;5091768;28;20573;-74
2021/04/16 05:41:57;;;;;;;1.30;0.80;;;;;;;;;;5092494;28;20052;-74
2021/04/16 05:44:23;;;;;;;0.98;0.75;;;;;;;;;;5092078;28;20103;-74
2021/04/16 05:46:49;;;;;;;1.40;1.27;;;;;;;;;;5093101;28;20028;-74
2021/04/16 05:49:15;;;;;;;0.60;0.60;;;;;;;;;;5092232;28;20027;-73
2021/04/16 05:51:41;;;;;;;0.77;0.77;;;;;;;;;;5091891;28;20047;-74
2021/04/16 05:54:08;;;;;;;0.90;0.80;;;;;;;;;;5092664;28;20479;-74
2021/04/16 05:56:34;;;;;;;1.08;0.88;;;;;;;;;;5091870;28;20039;-74
2021/04/16 05:59:00;;;;;;;0.90;0.90;;;;;;;;;;5092443;28;20035;-74
2021/04/16 06:01:26;;;;;;;1.40;1.00;;;;;;;;;;5091248;28;20062;-74
2021/04/16 06:03:53;;;;;;;0.95;0.95;;;;;;;;;;5092484;28;20412;-74
2021/04/16 06:06:19;;;;;;;1.75;1.30;;;;;;;;;;5078677;28;20029;-73
2021/04/16 06:08:45;;;;;;;1.45;1.00;;;;;;;;;;5071382;28;20021;-74
2021/04/16 06:11:12;;;;;;;1.40;1.30;;;;;;;;;;5071490;28;20033;-74
2021/04/16 06:13:38;;;;;;;1.30;1.20;;;;;;;;;;5071973;28;20419;-74
2021/04/16 06:16:05;;;;;;;1.83;1.38;;;;;;;;;;5074437;28;20093;-75
2021/04/16 06:18:31;;;;;;;2.45;1.55;;;;;;;;;;5082136;28;20032;-75
2021/04/16 06:20:57;;;;;;;1.33;1.23;;;;;;;;;;5082591;28;20043;-75
2021/04/16 06:23:24;;;;;;;3.78;1.73;;;;;;;;;;5074433;28;20086;-74
2021/04/16 06:25:50;;;;;;;1.73;1.30;;;;;;;;;;5077165;28;20216;-75
2021/04/16 06:28:16;;;;;;;1.48;1.38;;;;;;;;;;5079024;28;20061;-74
2021/04/16 06:30:43;;;;;;;1.33;1.23;;;;;;;;;;5072075;28;20025;-75
2021/04/16 06:33:13;;;;;;;2.17;1.60;;;;;;;;;;5070663;28;20044;-75
2021/04/16 06:35:40;;;;;;;2.30;1.60;;;;;;;;;;5074878;28;20483;-76
2021/04/16 06:38:06;;;;;;;3.13;1.42;;;;;;;;;;5071198;28;20468;-77
2021/04/16 06:40:32;;;;;;;4.90;3.88;;;;;;;;;;5093761;28;20447;-76
2021/04/16 06:42:58;;;;;;;3.63;3.33;;;;;;;;;;5087413;28;20103;-76
2021/04/16 06:45:27;;;;;;;3.50;2.75;;;;;;;;;;5089990;28;20093;-76
2021/04/16 06:47:55;;;;;;;3.17;2.88;;;;;;;;;;5084581;28;20390;-76
2021/04/16 06:50:21;;;;;;;4.57;2.75;;;;;;;;;;5081101;28;20479;-76
2021/04/16 06:53:02;;;;;;;2.85;2.60;;;;;;;;;;5076627;28;20047;-77
2021/04/16 06:55:30;;;;;;;3.05;2.67;;;;;;;;;;5092436;28;20078;-76
2021/04/16 06:58:02;;;;;;;4.53;3.03;;;;;;;;;;5083110;28;20016;-76
2021/04/16 07:00:36;;;;;;;5.03;2.72;;;;;;;;;;5095751;28;20519;-77
2021/04/16 07:03:08;;;;;;;1.98;1.60;;;;;;;;;;5080167;28;20545;-77
2021/04/16 07:05:38;;;;;;;3.13;2.78;;;;;;;;;;5070292;28;20526;-76
2021/04/16 07:08:05;;;;;;;4.60;2.83;;;;;;;;;;5089746;28;20020;-74
2021/04/16 07:10:33;;;;;;;5.28;3.10;;;;;;;;;;5089379;28;20111;-75
2021/04/16 07:13:00;;;;;;;3.22;2.92;;;;;;;;;;5090280;28;20040;-75
2021/04/16 07:15:42;;;;;;;4.82;2.33;;;;;;;;;;5089326;28;20523;-79
2021/04/16 07:18:11;;;;;;;4.10;1.95;;;;;;;;;;5089530;28;20439;-79
2021/04/16 07:20:37;;;;;;;4.07;2.83;;;;;;;;;;5086695;28;20030;-79
2021/04/16 07:23:04;;;;;;;5.22;2.53;;;;;;;;;;5084210;28;20082;-79
2021/04/16 07:25:42;;;;;;;3.17;2.78;;;;;;;;;;5086016;28;20029;-81
2021/04/16 07:28:10;;;;;;;3.22;2.25;;;;;;;;;;5080228;28;20088;-78
2021/04/16 07:30:45;;;;;;;7.00;1.83;;;;;;;;;;5080550;28;20039;-73
2021/04/16 07:33:26;;;;;;;2.15;1.52;;;;;;;;;;5079715;28;20035;-74
2021/04/16 07:35:53;;;;;;;3.85;2.47;;;;;;;;;;5085695;28;20418;-77
2021/04/16 07:38:29;;;;;;;1.80;1.70;;;;;;;;;;5079775;28;20376;-74
2021/04/16 07:41:14;;;;;;;2.55;2.25;;;;;;;;;;5078124;28;20070;-74
2021/04/16 07:43:46;;;;;;;2.20;1.80;;;;;;;;;;5084562;28;21211;-74
2021/04/16 07:46:22;;;;;;;2.20;1.90;;;;;;;;;;5074056;28;20064;-74
2021/04/16 07:48:48;;;;;;;3.60;2.30;;;;;;;;;;5087359;28;20041;-74
2021/04/16 07:51:27;;;;;;;4.22;1.83;;;;;;;;;;5088719;28;20036;-74
2021/04/16 07:53:53;;;;;;;2.92;1.65;;;;;;;;;;5086484;28;20442;-74
2021/04/16 07:56:23;;;;;;;3.97;1.73;;;;;;;;;;5088792;28;20035;-73
2021/04/16 07:59:05;;;;;;;1.60;1.50;;;;;;;;;;5079796;28;20028;-74
2021/04/16 08:01:33;;;;;;;2.90;2.15;;;;;;;;;;5085082;28;20028;-74
2021/04/16 08:04:01;;;;;;;3.22;1.85;;;;;;;;;;5096584;28;20024;-75
2021/04/16 08:06:29;;;;;;;2.00;1.77;;;;;;;;;;5098534;28;20103;-73
2021/04/16 08:08:56;;;;;;;2.72;1.90;;;;;;;;;;5089137;28;20021;-76
2021/04/16 08:11:33;;;;;;;6.82;2.58;;;;;;;;;;5088426;28;20240;-74
2021/04/16 08:14:02;;;;;;;2.65;1.80;;;;;;;;;;5073822;28;20464;-74
2021/04/16 08:16:36;;;;;;;1.80;1.70;;;;;;;;;;5085617;28;20107;-74
2021/04/16 08:19:25;;;;;;;1.80;1.70;;;;;;;;;;5080188;28;20035;-74
2021/04/16 08:21:53;;;;;;;3.53;1.88;;;;;;;;;;5075763;28;20044;-74
2021/04/16 08:24:23;;;;;;;2.15;1.63;;;;;;;;;;5105849;28;20039;-73
2021/04/16 08:27:04;;;;;;;4.47;1.95;;;;;;;;;;5069791;28;20483;-74
2021/04/16 08:29:42;;;;;;;4.30;2.90;;;;;;;;;;5068764;28;20032;-73
2021/04/16 08:32:18;;;;;;;5.57;1.48;;;;;;;;;;5079013;28;20075;-73
2021/04/16 08:34:47;;;;;;;2.50;1.52;;;;;;;;;;5086162;28;20024;-75
2021/04/16 08:37:19;;;;;;;3.15;1.40;;;;;;;;;;5083174;28;20036;-73
2021/04/16 08:39:45;;;;;;;2.70;1.50;;;;;;;;;;5078806;28;20044;-74
2021/04/16 08:42:20;;;;;;;2.25;2.00;;;;;;;;;;5087719;28;20039;-74
2021/04/16 08:44:52;;;;;;;2.85;1.98;;;;;;;;;;5084189;28;20031;-76
2021/04/16 08:47:21;;;;;;;2.20;1.70;;;;;;;;;;5075771;28;20547;-73
2021/04/16 08:49:47;;;;;;;2.65;1.25;;;;;;;;;;5092473;28;20031;-74
2021/04/16 08:52:17;;;;;;;2.53;1.73;;;;;;;;;;5095465;28;20067;-73
2021/04/16 08:54:45;;;;;;;2.30;1.42;;;;;;;;;;5089208;28;20072;-74
2021/04/16 08:57:24;;;;;;;1.80;1.38;;;;;;;;;;5091325;28;20132;-74
2021/04/16 09:00:02;;;;;;;1.67;1.58;;;;;;;;;;5101236;28;20443;-74
2021/04/16 09:02:31;;;;;;;2.15;1.38;;;;;;;;;;5090311;28;20073;-74
2021/04/16 09:05:18;;;;;;;1.48;1.10;;;;;;;;;;5092257;28;20032;-74
2021/04/16 09:07:45;;;;;;;2.95;1.48;;;;;;;;;;5082441;28;20032;-73
2021/04/16 09:10:14;;;;;;;4.03;2.10;;;;;;;;;;5092901;28;20470;-77
2021/04/16 09:12:40;;;;;;;3.25;2.55;;;;;;;;;;5090731;28;20075;-75
2021/04/16 09:15:26;;;;;;;6.32;2.67;;;;;;;;;;5072812;28;20063;-74
2021/04/16 09:17:52;;;;;;;2.95;1.48;;;;;;;;;;5075553;28;20471;-74
2021/04/16 09:20:39;;;;;;;1.48;1.38;;;;;;;;;;5071854;28;20525;-73
2021/04/16 09:23:18;;;;;;;1.63;1.52;;;;;;;;;;5072468;28;20075;-74
2021/04/16 09:25:48;;;;;;;2.60;1.20;;;;;;;;;;5082689;28;20020;-74
2021/04/16 09:28:23;;;;;;;2.05;1.23;;;;;;;;;;5112217;28;20120;-74
2021/04/16 09:30:51;;;;;;;1.70;1.50;;;;;;;;;;5112691;28;20034;-74
2021/04/16 09:33:22;;;;;;;3.80;1.73;;;;;;;;;;5112164;28;20459;-74
2021/04/16 09:35:56;;;;;;;1.60;1.15;;;;;;;;;;5089677;28;20632;-75
2021/04/16 09:38:38;;;;;;;2.35;1.20;;;;;;;;;;5086102;28;20052;-74
2021/04/16 09:41:07;;;;;;;3.28;1.65;;;;;;;;;;5087049;28;20081;-75
2021/04/16 09:43:33;;;;;;;3.60;1.30;;;;;;;;;;5083834;28;20558;-76
2021/04/16 09:45:59;;;;;;;2.88;0.98;;;;;;;;;;5077967;28;20024;-75
2021/04/16 09:48:45;;;;;;;2.42;1.25;;;;;;;;;;5093594;28;20434;-75
2021/04/16 09:51:30;;;;;;;1.60;1.13;;;;;;;;;;5109346;28;20374;-76
2021/04/16 09:54:11;;;;;;;4.88;2.08;;;;;;;;;;5090983;28;20081;-76
2021/04/16 09:56:38;;;;;;;1.33;0.82;;;;;;;;;;5088978;28;20024;-76
2021/04/16 09:59:08;;;;;;;1.20;1.10;;;;;;;;;;5091832;28;20492;-76
2021/04/16 10:01:54;;;;;;;2.22;1.00;;;;;;;;;;5092791;28;20382;-76
2021/04/16 10:04:40;;;;;;;3.25;1.20;;;;;;;;;;5090689;28;20116;-75
2021/04/16 10:07:09;;;;;;;3.13;1.52;;;;;;;;;;5089026;28;20035;-76
2021/04/16 10:09:35;;;;;;;5.85;1.70;;;;;;;;;;5090733;28;20064;-74
2021/04/16 10:12:03;;;;;;;1.48;1.30;;;;;;;;;;5092640;28;20058;-75
2021/04/16 10:14:30;;;;;;;0.90;0.82;;;;;;;;;;5088689;28;20040;-74
2021/04/16 10:17:06;;;;;;;1.42;1.30;;;;;;;;;;5095039;28;20039;-74
2021/04/16 10:19:36;;;;;;;1.77;1.30;;;;;;;;;;5077984;28;20770;-74
2021/04/16 10:22:26;;;;;;;1.10;1.00;;;;;;;;;;5089605;28;20579;-75
2021/04/16 10:34:30;;;;;;;2.42;1.00;;;;;;;;;;5094923;28;20128;-74
2021/04/16 12:40:19;;;;;;;1.90;1.80;;;;;;;;;;5080442;28;20058;-78
2021/04/16 12:42:45;;;;;;;1.30;1.15;;;;;;;;;;5089040;28;20032;-79
2021/04/16 12:45:11;;;;;;;2.20;2.00;;;;;;;;;;5090527;28;20027;-78
2021/04/16 12:47:37;;;;;;;2.88;2.10;;;;;;;;;;5086498;28;20032;-79
2021/04/16 12:50:04;;;;;;;1.83;1.55;;;;;;;;;;5088817;28;20039;-78
2021/04/16 12:52:30;;;;;;;2.58;1.80;;;;;;;;;;5072060;28;20032;-77
2021/04/16 12:54:56;;;;;;;2.42;1.73;;;;;;;;;;5072377;28;20065;-78
2021/04/16 12:57:34;;;;;;;2.25;1.08;;;;;;;;;;5083201;28;20067;-78
2021/04/16 13:00:01;;;;;;;1.23;1.13;;;;;;;;;;5083430;28;20044;-79
2021/04/16 13:02:28;;;;;;;3.03;1.38;;;;;;;;;;5082362;28;20099;-74
2021/04/16 13:04:59;;;;;;;2.50;1.10;;;;;;;;;;5075671;28;20150;-79
2021/04/16 13:07:25;;;;;;;1.20;1.00;;;;;;;;;;5081252;28;20043;-78
2021/04/16 13:09:52;;;;;;;4.50;2.00;;;;;;;;;;5087535;28;20016;-79
2021/04/16 13:12:19;;;;;;;3.63;1.55;;;;;;;;;;5092111;28;20164;-78
2021/04/16 13:14:45;;;;;;;3.97;1.30;;;;;;;;;;5091937;28;20024;-78
2021/04/16 13:17:13;;;;;;;1.50;1.08;;;;;;;;;;5108849;28;20054;-77
2021/04/16 13:19:39;;;;;;;2.15;1.30;;;;;;;;;;5093955;28;20024;-78
2021/04/16 13:22:16;;;;;;;1.70;1.00;;;;;;;;;;5078110;28;20020;-79
2021/04/16 13:24:43;;;;;;;2.70;1.00;;;;;;;;;;5086195;28;20566;-79
2021/04/16 13:27:11;;;;;;;2.05;0.77;;;;;;;;;;5091168;28;20395;-76
2021/04/16 13:29:37;;;;;;;1.00;1.00;;;;;;;;;;5108258;28;20059;-79
2021/04/16 13:32:06;;;;;;;2.60;1.40;;;;;;;;;;5091193;28;20111;-79
2021/04/16 13:34:33;;;;;;;1.42;1.00;;;;;;;;;;5071023;28;20051;-78
2021/04/16 13:36:59;;;;;;;2.30;1.30;;;;;;;;;;5071658;28;20036;-78
2021/04/16 13:39:25;;;;;;;1.83;1.70;;;;;;;;;;5083430;28;20048;-78
2021/04/16 13:41:52;;;;;;;5.63;5.05;;;;;;;;;;5112267;28;20066;-79
2021/04/16 13:44:18;;;;;;;3.60;3.28;;;;;;;;;;5111058;28;20032;-77
2021/04/16 13:46:45;;;;;;;4.78;2.45;;;;;;;;;;5093350;28;20430;-77
2021/04/16 13:49:16;;;;;;;2.88;2.35;;;;;;;;;;5092994;28;20028;-77
2021/04/16 13:51:42;;;;;;;1.75;1.65;;;;;;;;;;5091287;28;20115;-77
2021/04/16 13:54:08;;;;;;;1.98;1.75;;;;;;;;;;5091892;28;20028;-77
2021/04/16 13:56:35;;;;;;;2.25;2.05;;;;;;;;;;5089996;28;20462;-74
2021/04/16 13:59:01;;;;;;;2.13;1.80;;;;;;;;;;5090825;28;20099;-76
2021/04/16 14:01:27;;;;;;;2.53;1.70;;;;;;;;;;5090789;28;20031;-75
2021/04/16 14:03:56;;;;;;;2.90;2.58;;;;;;;;;;5081265;28;20034;-75
2021/04/16 14:06:27;;;;;;;6.43;1.63;;;;;;;;;;5084752;28;20542;-76
2021/04/16 14:08:54;;;;;;;4.25;1.77;;;;;;;;;;5088625;28;20058;-76
2021/04/16 14:11:21;;;;;;;3.08;2.17;;;;;;;;;;5076862;28;20424;-75
2021/04/16 14:13:47;;;;;;;2.60;2.28;;;;;;;;;;5084834;28;20056;-76
2021/04/16 14:16:20;;;;;;;1.92;1.67;;;;;;;;;;5071106;28;20386;-76
2021/04/16 14:18:48;;;;;;;3.60;2.03;;;;;;;;;;5085622;28;20076;-76
2021/04/16 14:21:15;;;;;;;2.00;1.80;;;;;;;;;;5111513;28;20356;-76
2021/04/16 14:23:42;;;;;;;3.45;1.85;;;;;;;;;;5111820;28;20031;-75
2021/04/16 14:26:09;;;;;;;3.95;2.42;;;;;;;;;;5111679;28;20024;-78
2021/04/16 14:28:35;;;;;;;3.38;2.67;;;;;;;;;;5111046;28;20761;-78
2021/04/16 14:31:01;;;;;;;1.60;1.48;;;;;;;;;;5093975;28;20107;-82
2021/04/16 14:33:29;;;;;;;2.28;1.77;;;;;;;;;;5086096;28;20502;-80
2021/04/16 14:35:55;;;;;;;3.72;1.42;;;;;;;;;;5070844;28;20148;-79
2021/04/16 14:38:22;;;;;;;2.88;1.33;;;;;;;;;;5073777;28;20040;-79
2021/04/16 14:40:48;;;;;;;3.42;1.90;;;;;;;;;;5090988;28;20025;-80
2021/04/16 14:43:15;;;;;;;2.10;1.50;;;;;;;;;;5089925;28;20020;-79
2021/04/16 14:45:42;;;;;;;1.25;1.13;;;;;;;;;;5090514;28;20063;-80
2021/04/16 14:48:09;;;;;;;4.45;1.92;;;;;;;;;;5091125;28;20483;-80
2021/04/16 14:50:36;;;;;;;2.72;1.95;;;;;;;;;;5073950;28;20071;-79
2021/04/16 14:53:04;;;;;;;3.17;1.90;;;;;;;;;;5070450;28;20072;-79
2021/04/16 14:55:33;;;;;;;2.30;2.10;;;;;;;;;;5070009;28;20035;-78
2021/04/16 14:58:00;;;;;;;3.70;1.98;;;;;;;;;;5071054;28;20398;-81
2021/04/16 15:00:27;;;;;;;3.95;1.92;;;;;;;;;;5069852;28;20020;-80
2021/04/16 15:02:53;;;;;;;4.07;2.70;;;;;;;;;;5070855;28;20487;-81
2021/04/16 15:05:20;;;;;;;1.88;1.70;;;;;;;;;;5081998;28;20032;-80
2021/04/16 15:07:48;;;;;;;1.90;1.80;;;;;;;;;;5083675;28;20040;-80
2021/04/16 15:10:17;;;;;;;2.40;1.80;;;;;;;;;;5091176;28;20090;-80
2021/04/16 15:12:44;;;;;;;2.80;2.03;;;;;;;;;;5070661;28;20039;-80
2021/04/16 15:15:23;;;;;;;3.17;2.35;;;;;;;;;;5082783;28;20027;-80
2021/04/16 15:17:50;;;;;;;1.73;1.15;;;;;;;;;;5090840;28;20024;-81
2021/04/16 15:20:16;;;;;;;2.50;2.08;;;;;;;;;;5090528;28;20028;-79
2021/04/16 15:22:42;;;;;;;3.28;1.73;;;;;;;;;;5090705;28;20028;-80
2021/04/16 15:25:09;;;;;;;3.33;1.73;;;;;;;;;;5091098;28;20078;-80
2021/04/16 15:27:38;;;;;;;2.25;1.27;;;;;;;;;;5090190;28;20077;-82
2021/04/16 15:30:06;;;;;;;1.83;1.35;;;;;;;;;;5091144;28;20062;-82
2021/04/16 15:32:34;;;;;;;5.80;1.83;;;;;;;;;;5090071;28;20050;-83
2021/04/16 15:46:00;;;;;;;2.65;0.95;;;;;;;;;;5084732;28;20406;-75
2021/04/16 15:48:26;;;;;;;;;;;;;;;;;;5090356;28;20024;-79
2021/04/16 15:50:54;;;;;;;2.58;1.42;;;;;;;;;;5091173;28;19910;-78
2021/04/16 15:53:22;;;;;;;4.82;1.60;;;;;;;;;;5089646;28;20043;-77
2021/04/16 15:55:48;;;;;;;1.75;1.23;;;;;;;;;;5090614;28;20030;-76
2021/04/16 15:58:16;;;;;;;3.53;1.98;;;;;;;;;;5090427;28;20103;-77
2021/04/16 16:00:45;;;;;;;3.45;1.27;;;;;;;;;;5088374;28;20108;-77
2021/04/16 16:03:11;;;;;;;3.33;1.48;;;;;;;;;;5089582;28;20039;-78
2021/04/16 16:05:39;;;;;;;4.05;1.10;;;;;;;;;;5089602;28;20489;-77
2021/04/16 16:08:06;;;;;;;3.63;1.60;;;;;;;;;;5090475;28;20031;-78
2021/04/16 16:10:32;;;;;;;3.55;1.30;;;;;;;;;;5090100;28;20036;-78
2021/04/16 16:13:00;;;;;;;3.00;1.42;;;;;;;;;;5090228;28;20612;-78
2021/04/16 16:15:28;;;;;;;3.03;1.27;;;;;;;;;;5090129;28;20032;-80
2021/04/16 16:17:55;;;;;;;2.63;1.25;;;;;;;;;;5090305;28;20016;-79
2021/04/16 16:20:23;;;;;;;8.07;1.67;;;;;;;;;;5089180;28;20455;-78
2021/04/16 16:22:49;;;;;;;6.07;1.60;;;;;;;;;;5090495;28;20024;-78
2021/04/16 16:25:16;;;;;;;4.38;1.50;;;;;;;;;;5090331;28;20027;-77
2021/04/16 16:27:43;;;;;;;4.85;1.70;;;;;;;;;;5090517;28;20562;-78
2021/04/16 16:30:11;;;;;;;1.90;1.20;;;;;;;;;;5089790;28;20119;-80
2021/04/16 16:32:39;;;;;;;1.80;1.42;;;;;;;;;;5089089;28;20068;-78
2021/04/16 16:35:06;;;;;;;4.70;1.70;;;;;;;;;;5090146;28;20052;-78
2021/04/16 16:37:33;;;;;;;6.47;1.60;;;;;;;;;;5089416;28;20113;-78
2021/04/16 16:39:59;;;;;;;3.10;1.40;;;;;;;;;;5088769;28;20075;-77
2021/04/16 16:42:39;;;;;;;2.28;1.02;;;;;;;;;;5076790;28;20082;-78
2021/04/16 16:45:07;;;;;;;2.72;2.17;;;;;;;;;;5074425;28;20027;-78
2021/04/16 16:47:33;;;;;;;1.50;1.40;;;;;;;;;;5069339;28;20452;-78
2021/04/16 16:49:59;;;;;;;2.47;1.70;;;;;;;;;;5088391;28;20024;-78
2021/04/16 16:52:25;;;;;;;2.05;1.27;;;;;;;;;;5088644;28;20149;-78
2021/04/16 16:54:51;;;;;;;3.42;1.10;;;;;;;;;;5089821;28;20035;-78
2021/04/16 16:57:20;;;;;;;2.22;0.73;;;;;;;;;;5089436;28;20028;-77
2021/04/16 16:59:46;;;;;;;1.58;0.82;;;;;;;;;;5089829;28;20028;-78
2021/04/16 17:02:13;;;;;;;1.95;1.52;;;;;;;;;;5089329;28;20020;-78
2021/04/16 17:04:39;;;;;;;1.08;0.88;;;;;;;;;;5089727;28;20032;-78
2021/04/16 17:07:06;;;;;;;3.17;1.15;;;;;;;;;;5093278;28;20058;-78
2021/04/16 17:09:32;;;;;;;1.00;1.00;;;;;;;;;;5093033;28;20102;-77
2021/04/16 17:11:58;;;;;;;1.67;1.33;;;;;;;;;;5093233;28;20107;-78
2021/04/16 17:14:27;;;;;;;1.35;1.25;;;;;;;;;;5093164;28;20555;-77